Flight Track Log - Related Links

Times and Time Zones

All times are in EDT time to prevent confusion due to time zone crossing. See the CES2444 flight status page for this flight to view local times or setup timezone preferences in your user account.

Time Position Orientation Groundspeed Altitude Reporting Facility
EDT Latitude Longitude Course Direction KTS MPH feet Rate Location/Type
Wed 07:28:00 AM 39.8530 115.3102 257° West  Level Estimated
Wed 07:29:00 AM 39.8317 115.1947 257° West  Level Estimated
Wed 07:30:00 AM 39.8102 115.0794 256° West  Level Estimated
Wed 07:31:00 AM 39.7887 114.9641 256° West  Level Estimated
Wed 07:32:00 AM 39.7670 114.8489 256° West  Level Estimated
Wed 07:33:00 AM 39.7452 114.7337 256° West  Level Estimated
Wed 07:34:00 AM 39.7233 114.6187 256° West  Level Estimated
Wed 07:35:00 AM 39.7013 114.5036 256° West  Level Estimated
Wed 07:36:00 AM 39.6792 114.3887 256° West  Level Estimated
Wed 07:37:00 AM 39.6569 114.2739 256° West  Level Estimated
Wed 07:38:00 AM 39.6346 114.1591 256° West  Level Estimated
Wed 07:39:00 AM 39.6121 114.0444 256° West  Level Estimated
Wed 07:40:00 AM 39.5895 113.9298 256° West  Level Estimated
Wed 07:41:00 AM 39.5668 113.8152 256° West  Level Estimated
Wed 07:42:00 AM 39.5440 113.7008 256° West  Level Estimated
Wed 07:43:00 AM 39.5211 113.5863 255° West  Level Estimated
Wed 07:44:00 AM 39.4981 113.4720 255° West  Level Estimated
Wed 07:45:00 AM 39.4749 113.3578 255° West  Level Estimated
Wed 07:46:00 AM 39.4517 113.2436 255° West  Level Estimated
Wed 07:47:00 AM 39.4283 113.1295 255° West  Level Estimated
Wed 07:48:00 AM 39.4048 113.0155 255° West  Level Estimated
Wed 07:49:00 AM 39.3812 112.9016 255° West  Level Estimated
Wed 07:50:00 AM 39.3575 112.7877 255° West  Level Estimated
Wed 07:51:00 AM 39.3337 112.6739 255° West  Level Estimated
Wed 07:52:00 AM 39.3098 112.5602 255° West  Level Estimated
Wed 07:53:00 AM 39.2858 112.4466 255° West  Level Estimated
Wed 07:54:00 AM 39.2616 112.3330 255° West  Level Estimated
Wed 07:55:00 AM 39.2374 112.2195 255° West  Level Estimated
Wed 07:56:00 AM 39.2130 112.1061 255° West  Level Estimated
Wed 07:57:00 AM 39.1885 111.9928 254° West  Level Estimated
Wed 07:58:00 AM 39.1640 111.8796 254° West  Level Estimated
Wed 07:59:00 AM 39.1393 111.7664 254° West  Level Estimated
Wed 08:00:00 AM 39.1145 111.6533 254° West  Level Estimated
Wed 08:01:00 AM 39.0896 111.5403 254° West  Level Estimated
Wed 08:02:00 AM 39.0645 111.4274 254° West  Level Estimated
Wed 08:03:00 AM 39.0394 111.3146 254° West  Level Estimated
Wed 08:04:00 AM 39.0142 111.2018 254° West  Level Estimated
Wed 08:05:00 AM 38.9888 111.0891 254° West  Level Estimated
Wed 08:06:00 AM 38.9634 110.9765 254° West  Level Estimated
Wed 08:07:00 AM 38.9378 110.8640 254° West  Level Estimated
Wed 08:08:00 AM 38.9121 110.7516 254° West  Level Estimated
Wed 08:09:00 AM 38.8864 110.6392 254° West  Level Estimated
Wed 08:10:00 AM 38.8605 110.5269 254° West  Level Estimated
Wed 08:11:00 AM 38.8345 110.4148 253° West  Level Estimated
Wed 08:12:00 AM 38.8084 110.3027 253° West  Level Estimated
Wed 08:13:00 AM 38.7822 110.1906 253° West  Level Estimated
Wed 08:14:00 AM 38.7559 110.0787 253° West  Level Estimated
Wed 08:15:00 AM 38.7294 109.9668 253° West  Level Estimated
Wed 08:16:00 AM 38.7029 109.8550 253° West  Level Estimated
Wed 08:17:00 AM 38.6763 109.7433 253° West  Level Estimated
Wed 08:18:00 AM 38.6495 109.6317 253° West  Level Estimated
Wed 08:19:00 AM 38.6227 109.5202 253° West  Level Estimated
Wed 08:20:00 AM 38.5957 109.4088 253° West  Level Estimated
Wed 08:21:00 AM 38.5687 109.2974 253° West  Level Estimated
Wed 08:22:00 AM 38.5415 109.1861 253° West  Level Estimated
Wed 08:23:00 AM 38.5143 109.0749 253° West  Level Estimated
Wed 08:24:00 AM 38.4869 108.9638 253° West  Level Estimated
Wed 08:25:00 AM 38.4594 108.8528 252° West  Level Estimated
Wed 08:26:00 AM 38.4318 108.7419 252° West  Level Estimated
Wed 08:27:00 AM 38.4041 108.6310 252° West  Level Estimated
Wed 08:28:00 AM 38.3763 108.5202 252° West  Level Estimated
Wed 08:29:00 AM 38.3484 108.4096 252° West  Level Estimated
Wed 08:30:00 AM 38.3204 108.2990 252° West  Level Estimated
Wed 08:31:00 AM 38.2923 108.1884 252° West  Level Estimated
Wed 08:32:00 AM 38.2641 108.0780 252° West  Level Estimated
Wed 08:33:00 AM 38.2358 107.9677 252° West  Level Estimated
Wed 08:34:00 AM 38.2074 107.8574 252° West  Level Estimated
Wed 08:35:00 AM 38.1789 107.7472 252° West  Level Estimated
Wed 08:36:00 AM 38.1503 107.6372 252° West  Level Estimated
Wed 08:37:00 AM 38.1216 107.5272 252° West  Level Estimated
Wed 08:38:00 AM 38.0927 107.4173 252° West  Level Estimated
Wed 08:39:00 AM 38.0638 107.3074 252° West  Level Estimated
Wed 08:40:00 AM 38.0348 107.1977 251° West  Level Estimated
Wed 08:41:00 AM 38.0056 107.0880 251° West  Level Estimated
Wed 08:42:00 AM 37.9764 106.9785 251° West  Level Estimated
Wed 08:43:00 AM 37.9471 106.8690 251° West  Level Estimated
Wed 08:44:00 AM 37.9176 106.7596 251° West  Level Estimated
Wed 08:45:00 AM 37.8881 106.6503 251° West  Level Estimated
Wed 08:46:00 AM 37.8585 106.5411 251° West  Level Estimated
Wed 08:47:00 AM 37.8287 106.4320 251° West  Level Estimated
Wed 08:48:00 AM 37.7989 106.3230 251° West  Level Estimated
Wed 08:49:00 AM 37.7689 106.2140 251° West  Level Estimated
Wed 08:50:00 AM 37.7389 106.1051 251° West  Level Estimated
Wed 08:51:00 AM 37.7088 105.9964 251° West  Level Estimated
Wed 08:52:00 AM 37.6785 105.8877 251° West  Level Estimated
Wed 08:53:00 AM 37.6482 105.7791 251° West  Level Estimated
Wed 08:54:00 AM 37.6177 105.6706 251° West  Level Estimated
Wed 08:55:00 AM 37.5872 105.5622 250° West  Level Estimated
Wed 08:56:00 AM 37.5566 105.4538 250° West  Level Estimated
Wed 08:57:00 AM 37.5258 105.3456 250° West  Level Estimated
Wed 08:58:00 AM 37.4950 105.2375 250° West  Level Estimated
Wed 08:59:00 AM 37.4641 105.1294 250° West  Level Estimated
Wed 09:00:00 AM 37.4330 105.0214 250° West  Level Estimated
Wed 09:01:00 AM 37.4019 104.9136 250° West  Level Estimated
Wed 09:02:00 AM 37.3707 104.8058 250° West  Level Estimated
Wed 09:03:00 AM 37.3393 104.6981 250° West  Level Estimated
Wed 09:04:00 AM 37.3079 104.5904 250° West  Level Estimated
Wed 09:05:00 AM 37.2764 104.4829 250° West  Level Estimated
Wed 09:06:00 AM 37.2448 104.3755 250° West  Level Estimated
Wed 09:07:00 AM 37.2131 104.2682 250° West  Level Estimated
Wed 09:08:00 AM 37.1813 104.1609 250° West  Level Estimated
Wed 09:09:00 AM 37.1493 104.0537 250° West  Level Estimated
Wed 09:10:00 AM 37.1174 103.9467 249° West  Level Estimated
Wed 09:11:00 AM 37.0853 103.8397 249° West  Level Estimated
Wed 09:12:00 AM 37.0531 103.7328 249° West  Level Estimated
Wed 09:13:00 AM 37.0208 103.6260 249° West  Level Estimated
Wed 09:14:00 AM 36.9884 103.5193 249° West  Level Estimated
Wed 09:15:00 AM 36.9559 103.4127 249° West  Level Estimated
Wed 09:16:00 AM 36.9233 103.3062 249° West  Level Estimated
Wed 09:17:00 AM 36.8906 103.1997 249° West  Level Estimated
Wed 09:18:00 AM 36.8579 103.0934 249° West  Level Estimated
Wed 09:19:00 AM 36.8250 102.9872 249° West  Level Estimated
Wed 09:20:00 AM 36.7920 102.8810 249° West  Level Estimated
Wed 09:21:00 AM 36.7574 102.7698 249° West  Level Estimated
Wed 09:22:00 AM 36.7227 102.6588 249° West  Level Estimated
Wed 09:23:00 AM 36.6878 102.5478 249° West  Level Estimated
Wed 09:24:00 AM 36.6529 102.4370 249° West  Level Estimated
Wed 09:25:00 AM 36.6178 102.3262 249° West  Level Estimated
Wed 09:26:00 AM 36.5827 102.2156 248° West  Level Estimated
Wed 09:27:00 AM 36.5474 102.1050 248° West  Level Estimated
Wed 09:28:00 AM 36.5275 102.0428 248° West  Level Estimated
Wed 09:29:00 AM 36.5275 102.0428 270° West  Level Estimated
Wed 09:30:00 AM 36.5275 102.0428 270° West  Level Estimated
Wed 09:31:00 AM 36.5275 102.0428 270° West  Level Estimated
Wed 09:32:00 AM 36.5275 102.0428 270° West  Level Estimated
Wed 09:33:00 AM 36.5275 102.0428 270° West  Level Estimated
Wed 09:34:00 AM 36.5275 102.0428 270° West  Level Estimated
Wed 09:35:00 AM 36.5275 102.0428 270° West  Level Estimated
Wed 09:36:00 AM 36.5275 102.0428 270° West  Level Estimated
Wed 09:37:00 AM 36.5275 102.0428 270° West  Level Estimated
Wed 09:38:00 AM 36.5275 102.0428 270° West  Level Estimated

Login

Don't have an account? Register now (free) for customized features, flight alerts, and more!